sensor_id;sensor_type;location;lat;lon;timestamp;pressure;altitude;pressure_sealevel;temperature;humidity
44872;BME280;30602;51.060;17.226;2024-01-25T00:00:45;101350.42;;;6.61;89.54
44872;BME280;30602;51.060;17.226;2024-01-25T00:04:08;101340.73;;;6.56;89.93
44872;BME280;30602;51.060;17.226;2024-01-25T00:07:29;101347.70;;;6.51;90.35
44872;BME280;30602;51.060;17.226;2024-01-25T00:10:49;101343.32;;;6.54;90.33
44872;BME280;30602;51.060;17.226;2024-01-25T00:14:11;101340.58;;;6.55;90.39
44872;BME280;30602;51.060;17.226;2024-01-25T00:17:32;101345.86;;;6.53;90.30
44872;BME280;30602;51.060;17.226;2024-01-25T00:20:53;101350.31;;;6.56;90.28
44872;BME280;30602;51.060;17.226;2024-01-25T00:24:15;101358.44;;;6.58;90.23
44872;BME280;30602;51.060;17.226;2024-01-25T00:27:35;101368.44;;;6.60;89.79
44872;BME280;30602;51.060;17.226;2024-01-25T00:30:57;101365.18;;;6.64;89.54
44872;BME280;30602;51.060;17.226;2024-01-25T00:34:19;101356.13;;;6.70;88.94
44872;BME280;30602;51.060;17.226;2024-01-25T00:37:38;101358.89;;;6.73;88.21
44872;BME280;30602;51.060;17.226;2024-01-25T00:40:57;101371.19;;;6.69;87.86
44872;BME280;30602;51.060;17.226;2024-01-25T00:44:16;101370.80;;;6.64;87.80
44872;BME280;30602;51.060;17.226;2024-01-25T00:47:49;101389.28;;;6.65;87.51
44872;BME280;30602;51.060;17.226;2024-01-25T00:51:07;101381.18;;;6.68;87.12
44872;BME280;30602;51.060;17.226;2024-01-25T00:54:26;101391.32;;;6.69;86.60
44872;BME280;30602;51.060;17.226;2024-01-25T00:57:47;101373.59;;;6.74;86.22
44872;BME280;30602;51.060;17.226;2024-01-25T01:01:48;101383.90;;;6.79;85.48
44872;BME280;30602;51.060;17.226;2024-01-25T01:05:09;101332.55;;;6.49;84.02
44872;BME280;30602;51.060;17.226;2024-01-25T01:08:32;101393.06;;;6.90;83.12
44872;BME280;30602;51.060;17.226;2024-01-25T01:11:53;101389.13;;;6.91;82.40
44872;BME280;30602;51.060;17.226;2024-01-25T01:15:15;101390.06;;;6.96;81.61
44872;BME280;30602;51.060;17.226;2024-01-25T01:18:43;101389.09;;;7.03;81.10
44872;BME280;30602;51.060;17.226;2024-01-25T01:22:04;101387.43;;;7.06;80.36
44872;BME280;30602;51.060;17.226;2024-01-25T01:25:24;101401.84;;;7.08;80.03
44872;BME280;30602;51.060;17.226;2024-01-25T01:28:45;101388.46;;;7.06;79.86
44872;BME280;30602;51.060;17.226;2024-01-25T01:32:36;101397.20;;;7.05;79.82
44872;BME280;30602;51.060;17.226;2024-01-25T01:35:55;101396.00;;;7.04;79.56
44872;BME280;30602;51.060;17.226;2024-01-25T01:39:15;101399.59;;;7.03;79.76
44872;BME280;30602;51.060;17.226;2024-01-25T01:42:33;101405.02;;;7.00;80.04
44872;BME280;30602;51.060;17.226;2024-01-25T01:45:54;101407.77;;;6.97;79.98
44872;BME280;30602;51.060;17.226;2024-01-25T01:49:17;101408.31;;;6.95;80.13
44872;BME280;30602;51.060;17.226;2024-01-25T01:52:38;101397.40;;;6.90;80.12
44872;BME280;30602;51.060;17.226;2024-01-25T01:56:01;101418.09;;;6.91;79.58
44872;BME280;30602;51.060;17.226;2024-01-25T01:59:23;101401.77;;;6.98;79.14
44872;BME280;30602;51.060;17.226;2024-01-25T02:02:49;101400.46;;;7.01;79.00
44872;BME280;30602;51.060;17.226;2024-01-25T02:06:11;101401.99;;;7.07;78.87
44872;BME280;30602;51.060;17.226;2024-01-25T02:09:35;101409.24;;;7.07;78.33
44872;BME280;30602;51.060;17.226;2024-01-25T02:12:54;101397.15;;;7.04;78.10
44872;BME280;30602;51.060;17.226;2024-01-25T02:16:18;101396.85;;;7.01;78.01
44872;BME280;30602;51.060;17.226;2024-01-25T02:19:43;101400.25;;;7.00;77.99
44872;BME280;30602;51.060;17.226;2024-01-25T02:23:04;101393.97;;;6.97;77.91
44872;BME280;30602;51.060;17.226;2024-01-25T02:26:26;101400.00;;;6.95;78.10
44872;BME280;30602;51.060;17.226;2024-01-25T02:30:01;101390.28;;;6.96;78.10
44872;BME280;30602;51.060;17.226;2024-01-25T02:33:22;101389.29;;;6.93;78.20
44872;BME280;30602;51.060;17.226;2024-01-25T02:36:43;101388.95;;;6.91;78.27
44872;BME280;30602;51.060;17.226;2024-01-25T02:40:06;101393.84;;;6.86;78.35
44872;BME280;30602;51.060;17.226;2024-01-25T02:43:25;101393.09;;;6.85;78.60
44872;BME280;30602;51.060;17.226;2024-01-25T02:46:48;101389.89;;;6.84;78.79
44872;BME280;30602;51.060;17.226;2024-01-25T02:50:11;101390.94;;;6.86;78.80
44872;BME280;30602;51.060;17.226;2024-01-25T02:53:35;101382.09;;;6.87;78.54
44872;BME280;30602;51.060;17.226;2024-01-25T02:57:05;101390.40;;;6.85;78.85
44872;BME280;30602;51.060;17.226;2024-01-25T03:00:25;101387.77;;;6.84;78.91
44872;BME280;30602;51.060;17.226;2024-01-25T03:03:45;101397.76;;;6.82;79.15
44872;BME280;30602;51.060;17.226;2024-01-25T03:07:04;101397.05;;;6.81;79.21
44872;BME280;30602;51.060;17.226;2024-01-25T03:10:25;101405.34;;;6.80;79.31
44872;BME280;30602;51.060;17.226;2024-01-25T03:13:48;101407.98;;;6.80;79.76
44872;BME280;30602;51.060;17.226;2024-01-25T03:17:11;101401.96;;;6.76;79.71
44872;BME280;30602;51.060;17.226;2024-01-25T03:20:32;101403.62;;;6.76;80.07
44872;BME280;30602;51.060;17.226;2024-01-25T03:23:51;101403.54;;;6.79;79.63
44872;BME280;30602;51.060;17.226;2024-01-25T03:27:10;101409.76;;;6.85;79.53
44872;BME280;30602;51.060;17.226;2024-01-25T03:30:35;101403.37;;;6.89;79.27
44872;BME280;30602;51.060;17.226;2024-01-25T03:33:53;101412.02;;;6.96;79.06
44872;BME280;30602;51.060;17.226;2024-01-25T03:37:12;101410.41;;;7.00;78.82
44872;BME280;30602;51.060;17.226;2024-01-25T03:40:47;101419.51;;;6.96;78.76
44872;BME280;30602;51.060;17.226;2024-01-25T03:44:07;101395.32;;;6.98;78.33
44872;BME280;30602;51.060;17.226;2024-01-25T03:47:31;101346.36;;;6.70;78.19
44872;BME280;30602;51.060;17.226;2024-01-25T03:50:56;101411.00;;;6.99;78.25
44872;BME280;30602;51.060;17.226;2024-01-25T03:54:17;101394.35;;;7.02;78.04
44872;BME280;30602;51.060;17.226;2024-01-25T03:57:38;101383.82;;;7.02;77.81
44872;BME280;30602;51.060;17.226;2024-01-25T04:01:02;101388.73;;;7.02;77.80
44872;BME280;30602;51.060;17.226;2024-01-25T04:04:22;101384.33;;;7.01;78.06
44872;BME280;30602;51.060;17.226;2024-01-25T04:07:45;101389.93;;;6.99;77.82
44872;BME280;30602;51.060;17.226;2024-01-25T04:11:07;101380.03;;;6.99;77.90
44872;BME280;30602;51.060;17.226;2024-01-25T04:14:31;101370.55;;;6.99;78.04
44872;BME280;30602;51.060;17.226;2024-01-25T04:17:53;101386.61;;;7.05;77.99
44872;BME280;30602;51.060;17.226;2024-01-25T04:21:13;101372.25;;;7.06;78.24
44872;BME280;30602;51.060;17.226;2024-01-25T04:24:35;101378.26;;;7.01;78.45
44872;BME280;30602;51.060;17.226;2024-01-25T04:27:59;101378.76;;;6.99;79.58
44872;BME280;30602;51.060;17.226;2024-01-25T04:31:18;101364.69;;;6.90;82.21
44872;BME280;30602;51.060;17.226;2024-01-25T04:34:44;101384.73;;;6.71;83.45
44872;BME280;30602;51.060;17.226;2024-01-25T04:38:07;101369.55;;;6.60;84.84
44872;BME280;30602;51.060;17.226;2024-01-25T04:41:29;101378.47;;;6.51;86.37
44872;BME280;30602;51.060;17.226;2024-01-25T04:44:51;101371.39;;;6.42;88.25
44872;BME280;30602;51.060;17.226;2024-01-25T04:48:13;101366.26;;;6.34;87.91
44872;BME280;30602;51.060;17.226;2024-01-25T04:51:46;101367.19;;;6.34;87.71
44872;BME280;30602;51.060;17.226;2024-01-25T04:55:06;101369.14;;;6.35;87.61
44872;BME280;30602;51.060;17.226;2024-01-25T04:58:28;101381.26;;;6.36;88.35
44872;BME280;30602;51.060;17.226;2024-01-25T05:01:48;101385.91;;;6.34;88.43
44872;BME280;30602;51.060;17.226;2024-01-25T05:05:08;101388.05;;;6.30;88.49
44872;BME280;30602;51.060;17.226;2024-01-25T05:08:31;101386.96;;;6.25;87.94
44872;BME280;30602;51.060;17.226;2024-01-25T05:11:53;101393.56;;;6.31;87.33
44872;BME280;30602;51.060;17.226;2024-01-25T05:15:25;101383.89;;;6.37;86.77
44872;BME280;30602;51.060;17.226;2024-01-25T05:18:45;101386.82;;;6.42;86.24
44872;BME280;30602;51.060;17.226;2024-01-25T05:22:13;101387.48;;;6.46;85.96
44872;BME280;30602;51.060;17.226;2024-01-25T05:25:35;101393.79;;;6.48;85.50
44872;BME280;30602;51.060;17.226;2024-01-25T05:29:29;101383.45;;;6.52;85.20
44872;BME280;30602;51.060;17.226;2024-01-25T05:32:54;101389.31;;;6.56;84.72
44872;BME280;30602;51.060;17.226;2024-01-25T05:36:18;101386.42;;;6.57;84.43
44872;BME280;30602;51.060;17.226;2024-01-25T05:39:43;101387.40;;;6.57;84.43
44872;BME280;30602;51.060;17.226;2024-01-25T05:43:05;101394.08;;;6.56;84.48
44872;BME280;30602;51.060;17.226;2024-01-25T05:46:29;101397.98;;;6.55;84.82
44872;BME280;30602;51.060;17.226;2024-01-25T05:49:51;101403.68;;;6.59;84.94
44872;BME280;30602;51.060;17.226;2024-01-25T05:53:40;101398.29;;;6.62;84.99
44872;BME280;30602;51.060;17.226;2024-01-25T05:57:03;101408.95;;;6.57;85.66
44872;BME280;30602;51.060;17.226;2024-01-25T06:00:23;101415.51;;;6.51;86.24
44872;BME280;30602;51.060;17.226;2024-01-25T06:03:45;101421.42;;;6.47;86.81
44872;BME280;30602;51.060;17.226;2024-01-25T06:07:05;101422.30;;;6.40;87.08
44872;BME280;30602;51.060;17.226;2024-01-25T06:10:59;101422.72;;;6.38;87.69
44872;BME280;30602;51.060;17.226;2024-01-25T06:14:20;101435.11;;;6.37;88.05
44872;BME280;30602;51.060;17.226;2024-01-25T06:17:42;101437.47;;;6.32;88.68
44872;BME280;30602;51.060;17.226;2024-01-25T06:21:34;101437.66;;;6.27;89.26
44872;BME280;30602;51.060;17.226;2024-01-25T06:25:27;101435.73;;;6.27;89.69
44872;BME280;30602;51.060;17.226;2024-01-25T06:28:51;101430.75;;;6.25;89.99
44872;BME280;30602;51.060;17.226;2024-01-25T06:32:46;101441.95;;;6.25;90.04
44872;BME280;30602;51.060;17.226;2024-01-25T06:36:07;101436.96;;;6.27;89.73
44872;BME280;30602;51.060;17.226;2024-01-25T06:39:57;101435.97;;;6.28;89.28
44872;BME280;30602;51.060;17.226;2024-01-25T06:43:20;101432.77;;;6.29;88.83
44872;BME280;30602;51.060;17.226;2024-01-25T06:46:44;101432.09;;;6.27;88.41
44872;BME280;30602;51.060;17.226;2024-01-25T06:50:07;101438.32;;;6.28;88.02
44872;BME280;30602;51.060;17.226;2024-01-25T06:53:30;101451.82;;;6.28;87.59
44872;BME280;30602;51.060;17.226;2024-01-25T06:57:30;101451.69;;;6.34;86.99
44872;BME280;30602;51.060;17.226;2024-01-25T07:00:51;101438.38;;;6.35;86.93
44872;BME280;30602;51.060;17.226;2024-01-25T07:04:16;101443.95;;;6.32;86.62
44872;BME280;30602;51.060;17.226;2024-01-25T07:07:41;101442.60;;;6.36;85.89
44872;BME280;30602;51.060;17.226;2024-01-25T07:11:06;101450.26;;;6.39;85.49
44872;BME280;30602;51.060;17.226;2024-01-25T07:14:30;101460.27;;;6.44;85.04
44872;BME280;30602;51.060;17.226;2024-01-25T07:17:49;101463.42;;;6.47;84.22
44872;BME280;30602;51.060;17.226;2024-01-25T07:21:10;101472.55;;;6.51;83.56
44872;BME280;30602;51.060;17.226;2024-01-25T07:24:30;101473.55;;;6.61;82.94
44872;BME280;30602;51.060;17.226;2024-01-25T07:27:52;101481.52;;;6.64;82.28
44872;BME280;30602;51.060;17.226;2024-01-25T07:31:13;101495.50;;;6.62;81.89
44872;BME280;30602;51.060;17.226;2024-01-25T07:35:07;101491.21;;;6.57;81.71
44872;BME280;30602;51.060;17.226;2024-01-25T07:38:31;101508.26;;;6.61;81.24
44872;BME280;30602;51.060;17.226;2024-01-25T07:41:53;101512.32;;;6.60;80.58
44872;BME280;30602;51.060;17.226;2024-01-25T07:45:44;101508.17;;;6.55;80.37
44872;BME280;30602;51.060;17.226;2024-01-25T07:49:06;101521.27;;;6.66;79.81
44872;BME280;30602;51.060;17.226;2024-01-25T07:52:32;101524.80;;;6.69;79.17
44872;BME280;30602;51.060;17.226;2024-01-25T07:55:56;101540.93;;;6.68;79.16
44872;BME280;30602;51.060;17.226;2024-01-25T07:59:47;101535.66;;;6.71;78.22
44872;BME280;30602;51.060;17.226;2024-01-25T08:03:09;101529.80;;;6.75;77.64
44872;BME280;30602;51.060;17.226;2024-01-25T08:06:30;101540.47;;;6.80;76.83
44872;BME280;30602;51.060;17.226;2024-01-25T08:10:41;101536.76;;;6.81;76.31
44872;BME280;30602;51.060;17.226;2024-01-25T08:14:40;101538.31;;;6.98;75.26
44872;BME280;30602;51.060;17.226;2024-01-25T08:18:04;101560.26;;;6.99;74.66
44872;BME280;30602;51.060;17.226;2024-01-25T08:21:25;101545.48;;;7.01;74.54
44872;BME280;30602;51.060;17.226;2024-01-25T08:25:08;101555.18;;;6.99;74.32
44872;BME280;30602;51.060;17.226;2024-01-25T08:29:01;101559.02;;;7.00;73.94
44872;BME280;30602;51.060;17.226;2024-01-25T08:32:22;101563.79;;;7.02;74.23
44872;BME280;30602;51.060;17.226;2024-01-25T08:35:46;101563.38;;;7.01;74.28
44872;BME280;30602;51.060;17.226;2024-01-25T08:39:08;101565.52;;;6.99;74.25
44872;BME280;30602;51.060;17.226;2024-01-25T08:42:27;101565.56;;;7.02;74.18
44872;BME280;30602;51.060;17.226;2024-01-25T08:45:50;101579.47;;;7.00;74.16
44872;BME280;30602;51.060;17.226;2024-01-25T08:49:39;101571.34;;;7.02;74.25
44872;BME280;30602;51.060;17.226;2024-01-25T08:52:58;101573.90;;;7.05;73.81
44872;BME280;30602;51.060;17.226;2024-01-25T08:56:17;101561.10;;;7.09;73.70
44872;BME280;30602;51.060;17.226;2024-01-25T08:59:37;101585.63;;;7.13;73.41
44872;BME280;30602;51.060;17.226;2024-01-25T09:02:56;101602.14;;;7.14;73.73
44872;BME280;30602;51.060;17.226;2024-01-25T09:06:17;101607.88;;;7.13;73.51
44872;BME280;30602;51.060;17.226;2024-01-25T09:09:40;101616.53;;;7.12;73.45
44872;BME280;30602;51.060;17.226;2024-01-25T09:13:03;101613.85;;;7.14;73.59
44872;BME280;30602;51.060;17.226;2024-01-25T09:16:22;101631.86;;;7.14;73.34
44872;BME280;30602;51.060;17.226;2024-01-25T09:20:14;101639.34;;;7.12;73.01
44872;BME280;30602;51.060;17.226;2024-01-25T09:23:38;101652.41;;;7.13;72.78
44872;BME280;30602;51.060;17.226;2024-01-25T09:27:28;101647.86;;;7.12;72.63
44872;BME280;30602;51.060;17.226;2024-01-25T09:30:54;101638.98;;;7.16;72.26
44872;BME280;30602;51.060;17.226;2024-01-25T09:34:13;101638.83;;;7.16;72.35
44872;BME280;30602;51.060;17.226;2024-01-25T09:38:04;101652.05;;;7.18;72.54
44872;BME280;30602;51.060;17.226;2024-01-25T09:41:24;101652.12;;;7.25;71.92
44872;BME280;30602;51.060;17.226;2024-01-25T09:45:18;101658.63;;;7.30;71.81
44872;BME280;30602;51.060;17.226;2024-01-25T09:48:39;101660.72;;;7.32;71.86
44872;BME280;30602;51.060;17.226;2024-01-25T09:52:04;101668.80;;;7.28;71.37
44872;BME280;30602;51.060;17.226;2024-01-25T09:55:27;101680.10;;;7.28;71.60
44872;BME280;30602;51.060;17.226;2024-01-25T09:59:18;101693.30;;;7.29;71.70
44872;BME280;30602;51.060;17.226;2024-01-25T10:02:41;101675.49;;;7.30;71.69
44872;BME280;30602;51.060;17.226;2024-01-25T10:06:05;101683.25;;;7.26;71.82
44872;BME280;30602;51.060;17.226;2024-01-25T10:09:31;101682.61;;;7.21;72.54
44872;BME280;30602;51.060;17.226;2024-01-25T10:12:56;101697.20;;;7.19;72.25
44872;BME280;30602;51.060;17.226;2024-01-25T10:16:18;101705.32;;;7.17;72.60
44872;BME280;30602;51.060;17.226;2024-01-25T10:19:43;101698.13;;;7.12;72.47
44872;BME280;30602;51.060;17.226;2024-01-25T10:23:02;101707.20;;;7.13;72.58
44872;BME280;30602;51.060;17.226;2024-01-25T10:26:27;101705.63;;;7.14;72.59
44872;BME280;30602;51.060;17.226;2024-01-25T10:29:50;101717.45;;;7.17;72.26
44872;BME280;30602;51.060;17.226;2024-01-25T10:33:19;101718.73;;;7.21;71.90
44872;BME280;30602;51.060;17.226;2024-01-25T10:36:38;101716.02;;;7.19;71.55
44872;BME280;30602;51.060;17.226;2024-01-25T10:40:02;101715.34;;;7.19;71.26
44872;BME280;30602;51.060;17.226;2024-01-25T10:43:22;101711.38;;;7.19;71.64
44872;BME280;30602;51.060;17.226;2024-01-25T10:46:47;101714.53;;;7.20;71.95
44872;BME280;30602;51.060;17.226;2024-01-25T10:50:08;101711.90;;;7.19;71.70
44872;BME280;30602;51.060;17.226;2024-01-25T10:53:44;101718.63;;;7.17;71.04
44872;BME280;30602;51.060;17.226;2024-01-25T10:57:05;101701.28;;;7.18;70.70
44872;BME280;30602;51.060;17.226;2024-01-25T11:00:24;101692.16;;;7.10;70.48
44872;BME280;30602;51.060;17.226;2024-01-25T11:03:47;101708.29;;;7.18;70.50
44872;BME280;30602;51.060;17.226;2024-01-25T11:07:07;101715.41;;;7.21;70.52
44872;BME280;30602;51.060;17.226;2024-01-25T11:10:34;101711.63;;;7.26;69.95
44872;BME280;30602;51.060;17.226;2024-01-25T11:14:00;101706.73;;;7.33;69.94
44872;BME280;30602;51.060;17.226;2024-01-25T11:17:23;101714.76;;;7.30;69.33
44872;BME280;30602;51.060;17.226;2024-01-25T11:25:33;101709.90;;;7.23;69.43
44872;BME280;30602;51.060;17.226;2024-01-25T11:28:56;101721.43;;;7.27;69.14
44872;BME280;30602;51.060;17.226;2024-01-25T11:32:49;101722.38;;;7.26;69.47
44872;BME280;30602;51.060;17.226;2024-01-25T11:36:08;101730.18;;;7.27;70.08
44872;BME280;30602;51.060;17.226;2024-01-25T11:39:32;101739.69;;;7.26;70.32
44872;BME280;30602;51.060;17.226;2024-01-25T11:42:52;101740.48;;;7.23;70.95
44872;BME280;30602;51.060;17.226;2024-01-25T11:46:11;101734.88;;;7.24;70.94
44872;BME280;30602;51.060;17.226;2024-01-25T11:49:35;101739.55;;;7.23;71.23
44872;BME280;30602;51.060;17.226;2024-01-25T11:52:54;101744.95;;;7.23;71.42
44872;BME280;30602;51.060;17.226;2024-01-25T11:56:28;101737.41;;;7.25;71.77
44872;BME280;30602;51.060;17.226;2024-01-25T12:00:21;101747.84;;;7.29;71.66
44872;BME280;30602;51.060;17.226;2024-01-25T12:03:45;101741.81;;;7.28;71.23
44872;BME280;30602;51.060;17.226;2024-01-25T12:07:09;101735.70;;;7.24;71.44
44872;BME280;30602;51.060;17.226;2024-01-25T12:11:07;101723.31;;;7.23;71.47
44872;BME280;30602;51.060;17.226;2024-01-25T12:14:28;101730.93;;;7.27;71.31
44872;BME280;30602;51.060;17.226;2024-01-25T12:17:50;101713.50;;;7.28;70.50
44872;BME280;30602;51.060;17.226;2024-01-25T12:21:13;101704.73;;;7.29;70.63
44872;BME280;30602;51.060;17.226;2024-01-25T12:25:16;101712.77;;;7.31;69.75
44872;BME280;30602;51.060;17.226;2024-01-25T12:28:48;101719.68;;;7.36;69.11
44872;BME280;30602;51.060;17.226;2024-01-25T12:32:51;101728.02;;;7.40;68.37
44872;BME280;30602;51.060;17.226;2024-01-25T12:37:01;101719.95;;;7.47;68.38
44872;BME280;30602;51.060;17.226;2024-01-25T12:40:19;101725.12;;;7.52;67.73
44872;BME280;30602;51.060;17.226;2024-01-25T12:43:41;101733.11;;;7.59;67.66
44872;BME280;30602;51.060;17.226;2024-01-25T12:47:01;101734.37;;;7.63;68.01
44872;BME280;30602;51.060;17.226;2024-01-25T12:50:58;101732.75;;;7.66;67.43
44872;BME280;30602;51.060;17.226;2024-01-25T12:54:17;101735.14;;;7.73;67.32
44872;BME280;30602;51.060;17.226;2024-01-25T12:57:47;101741.73;;;7.76;67.36
44872;BME280;30602;51.060;17.226;2024-01-25T13:01:32;101724.60;;;7.75;66.59
44872;BME280;30602;51.060;17.226;2024-01-25T13:04:48;101735.70;;;7.74;66.43
44872;BME280;30602;51.060;17.226;2024-01-25T13:08:14;101729.12;;;7.70;66.35
44872;BME280;30602;51.060;17.226;2024-01-25T13:12:07;101736.77;;;7.69;66.52
44872;BME280;30602;51.060;17.226;2024-01-25T13:15:28;101734.76;;;7.68;66.39
44872;BME280;30602;51.060;17.226;2024-01-25T13:19:21;101727.79;;;7.65;66.27
44872;BME280;30602;51.060;17.226;2024-01-25T13:23:13;101735.09;;;7.66;66.01
44872;BME280;30602;51.060;17.226;2024-01-25T13:27:43;101729.09;;;7.64;65.77
44872;BME280;30602;51.060;17.226;2024-01-25T13:30:58;101756.13;;;7.68;65.11
44872;BME280;30602;51.060;17.226;2024-01-25T13:34:22;101752.97;;;7.64;64.74
44872;BME280;30602;51.060;17.226;2024-01-25T13:37:57;101738.60;;;7.59;64.84
44872;BME280;30602;51.060;17.226;2024-01-25T13:41:20;101744.60;;;7.56;64.68
44872;BME280;30602;51.060;17.226;2024-01-25T13:44:45;101752.22;;;7.55;64.76
44872;BME280;30602;51.060;17.226;2024-01-25T13:48:15;101747.45;;;7.51;64.65
44872;BME280;30602;51.060;17.226;2024-01-25T13:51:40;101737.40;;;7.50;64.75
44872;BME280;30602;51.060;17.226;2024-01-25T13:55:35;101735.59;;;7.49;65.12
44872;BME280;30602;51.060;17.226;2024-01-25T13:58:57;101759.06;;;7.50;64.85
44872;BME280;30602;51.060;17.226;2024-01-25T14:02:52;101752.83;;;7.48;64.98
44872;BME280;30602;51.060;17.226;2024-01-25T14:06:15;101740.95;;;7.52;66.05
44872;BME280;30602;51.060;17.226;2024-01-25T14:10:06;101748.34;;;7.48;67.12
44872;BME280;30602;51.060;17.226;2024-01-25T14:13:55;101741.25;;;7.47;67.76
44872;BME280;30602;51.060;17.226;2024-01-25T14:17:18;101779.45;;;7.46;67.78
44872;BME280;30602;51.060;17.226;2024-01-25T14:20:42;101758.34;;;7.43;68.26
44872;BME280;30602;51.060;17.226;2024-01-25T14:24:05;101754.78;;;7.38;68.37
44872;BME280;30602;51.060;17.226;2024-01-25T14:27:27;101754.15;;;7.33;69.26
44872;BME280;30602;51.060;17.226;2024-01-25T14:30:51;101758.16;;;7.26;69.47
44872;BME280;30602;51.060;17.226;2024-01-25T14:34:44;101772.91;;;7.22;69.77
44872;BME280;30602;51.060;17.226;2024-01-25T14:38:05;101779.95;;;7.20;70.03
44872;BME280;30602;51.060;17.226;2024-01-25T14:42:02;101783.20;;;7.16;70.27
44872;BME280;30602;51.060;17.226;2024-01-25T14:45:30;101808.16;;;7.13;70.27
44872;BME280;30602;51.060;17.226;2024-01-25T14:48:53;101800.73;;;7.09;69.82
44872;BME280;30602;51.060;17.226;2024-01-25T14:52:19;101799.55;;;7.04;69.84
44872;BME280;30602;51.060;17.226;2024-01-25T14:55:42;101817.54;;;7.10;70.66
44872;BME280;30602;51.060;17.226;2024-01-25T14:59:31;101821.64;;;7.16;70.61
44872;BME280;30602;51.060;17.226;2024-01-25T15:02:49;101828.04;;;7.15;71.38
44872;BME280;30602;51.060;17.226;2024-01-25T15:06:44;101845.00;;;7.10;69.06
44872;BME280;30602;51.060;17.226;2024-01-25T15:10:38;101819.27;;;6.91;68.95
44872;BME280;30602;51.060;17.226;2024-01-25T15:14:31;101852.97;;;7.04;68.42
44872;BME280;30602;51.060;17.226;2024-01-25T15:17:51;101846.17;;;7.01;68.16
44872;BME280;30602;51.060;17.226;2024-01-25T15:21:49;101866.45;;;6.96;68.53
44872;BME280;30602;51.060;17.226;2024-01-25T15:25:10;101871.37;;;6.94;68.51
44872;BME280;30602;51.060;17.226;2024-01-25T15:28:35;101887.33;;;6.90;68.88
44872;BME280;30602;51.060;17.226;2024-01-25T15:32:26;101898.70;;;6.87;68.81
44872;BME280;30602;51.060;17.226;2024-01-25T15:35:48;101906.94;;;6.86;68.95
44872;BME280;30602;51.060;17.226;2024-01-25T15:39:10;101910.76;;;6.91;68.84
44872;BME280;30602;51.060;17.226;2024-01-25T15:42:36;101907.64;;;6.91;68.86
44872;BME280;30602;51.060;17.226;2024-01-25T15:45:58;101924.84;;;6.90;69.63
44872;BME280;30602;51.060;17.226;2024-01-25T15:49:15;101945.84;;;6.86;70.12
44872;BME280;30602;51.060;17.226;2024-01-25T15:52:37;101936.09;;;6.83;70.32
44872;BME280;30602;51.060;17.226;2024-01-25T15:56:30;101946.45;;;6.80;71.12
44872;BME280;30602;51.060;17.226;2024-01-25T15:59:53;101953.23;;;6.76;71.47
44872;BME280;30602;51.060;17.226;2024-01-25T16:03:47;101960.13;;;6.75;72.07
44872;BME280;30602;51.060;17.226;2024-01-25T16:07:08;101962.71;;;6.73;72.34
44872;BME280;30602;51.060;17.226;2024-01-25T16:10:30;101972.02;;;6.72;72.71
44872;BME280;30602;51.060;17.226;2024-01-25T16:13:54;101975.92;;;6.71;72.93
44872;BME280;30602;51.060;17.226;2024-01-25T16:17:12;101971.88;;;6.69;72.93
44872;BME280;30602;51.060;17.226;2024-01-25T16:20:35;101980.54;;;6.69;73.06
44872;BME280;30602;51.060;17.226;2024-01-25T16:23:55;101986.35;;;6.68;73.21
44872;BME280;30602;51.060;17.226;2024-01-25T16:27:15;101978.04;;;6.73;73.40
44872;BME280;30602;51.060;17.226;2024-01-25T16:30:34;101983.05;;;6.77;73.14
44872;BME280;30602;51.060;17.226;2024-01-25T16:33:55;101987.43;;;6.72;73.28
44872;BME280;30602;51.060;17.226;2024-01-25T16:37:17;102000.91;;;6.72;73.57
44872;BME280;30602;51.060;17.226;2024-01-25T16:40:42;102008.81;;;6.69;73.65
44872;BME280;30602;51.060;17.226;2024-01-25T16:44:01;102009.18;;;6.68;73.48
44872;BME280;30602;51.060;17.226;2024-01-25T16:47:23;102014.37;;;6.67;73.57
44872;BME280;30602;51.060;17.226;2024-01-25T16:50:46;102021.59;;;6.66;73.71
44872;BME280;30602;51.060;17.226;2024-01-25T16:54:07;102025.25;;;6.65;73.89
44872;BME280;30602;51.060;17.226;2024-01-25T16:57:34;102019.13;;;6.67;74.00
44872;BME280;30602;51.060;17.226;2024-01-25T17:01:35;102035.41;;;6.65;74.40
44872;BME280;30602;51.060;17.226;2024-01-25T17:04:58;102025.74;;;6.63;74.53
44872;BME280;30602;51.060;17.226;2024-01-25T17:08:17;102036.45;;;6.64;74.94
44872;BME280;30602;51.060;17.226;2024-01-25T17:11:44;102051.24;;;6.63;75.19
44872;BME280;30602;51.060;17.226;2024-01-25T17:15:04;102044.86;;;6.66;75.45
44872;BME280;30602;51.060;17.226;2024-01-25T17:18:28;102042.35;;;6.69;74.92
44872;BME280;30602;51.060;17.226;2024-01-25T17:21:56;102044.93;;;6.66;75.00
44872;BME280;30602;51.060;17.226;2024-01-25T17:25:58;102051.98;;;6.64;75.19
44872;BME280;30602;51.060;17.226;2024-01-25T17:29:57;102047.02;;;6.64;75.26
44872;BME280;30602;51.060;17.226;2024-01-25T17:33:21;102050.32;;;6.64;75.14
44872;BME280;30602;51.060;17.226;2024-01-25T17:36:43;102045.47;;;6.59;75.67
44872;BME280;30602;51.060;17.226;2024-01-25T17:40:10;102035.78;;;6.55;76.12
44872;BME280;30602;51.060;17.226;2024-01-25T17:44:01;102042.10;;;6.53;76.11
44872;BME280;30602;51.060;17.226;2024-01-25T17:47:30;102055.95;;;6.52;76.39
44872;BME280;30602;51.060;17.226;2024-01-25T17:51:00;102064.25;;;6.51;76.47
44872;BME280;30602;51.060;17.226;2024-01-25T17:54:25;102070.09;;;6.50;76.78
44872;BME280;30602;51.060;17.226;2024-01-25T17:58:15;102073.38;;;6.53;76.74
44872;BME280;30602;51.060;17.226;2024-01-25T18:01:34;102084.39;;;6.59;76.51
44872;BME280;30602;51.060;17.226;2024-01-25T18:04:54;102080.81;;;6.59;76.33
44872;BME280;30602;51.060;17.226;2024-01-25T18:08:16;102088.26;;;6.57;76.42
44872;BME280;30602;51.060;17.226;2024-01-25T18:11:38;102084.46;;;6.52;76.76